sensor_id;sensor_type;location;lat;lon;timestamp;pressure;altitude;pressure_sealevel;temperature;humidity
14689;BME280;7432;48.728;9.154;2023-04-29T00:00:26;144634.84;;;11.51;100.00
14689;BME280;7432;48.728;9.154;2023-04-29T00:02:52;144623.97;;;11.46;100.00
14689;BME280;7432;48.728;9.154;2023-04-29T00:05:20;144623.97;;;11.46;100.00
14689;BME280;7432;48.728;9.154;2023-04-29T00:07:46;144620.38;;;11.45;100.00
14689;BME280;7432;48.728;9.154;2023-04-29T00:10:13;144623.97;;;11.46;100.00
14689;BME280;7432;48.728;9.154;2023-04-29T00:12:39;144627.59;;;11.48;100.00
14689;BME280;7432;48.728;9.154;2023-04-29T00:15:07;144608.22;;;11.40;100.00
14689;BME280;7432;48.728;9.154;2023-04-29T00:17:33;144615.47;;;11.43;100.00
14689;BME280;7432;48.728;9.154;2023-04-29T00:20:00;144605.81;;;11.39;100.00
14689;BME280;7432;48.728;9.154;2023-04-29T00:22:28;144608.22;;;11.40;100.00
14689;BME280;7432;48.728;9.154;2023-04-29T00:24:54;144593.72;;;11.34;100.00
14689;BME280;7432;48.728;9.154;2023-04-29T00:27:21;144587.66;;;11.31;100.00
14689;BME280;7432;48.728;9.154;2023-04-29T00:29:47;144574.34;;;11.25;100.00
14689;BME280;7432;48.728;9.154;2023-04-29T00:32:13;144569.47;;;11.23;100.00
14689;BME280;7432;48.728;9.154;2023-04-29T00:34:40;144551.31;;;11.16;100.00
14689;BME280;7432;48.728;9.154;2023-04-29T00:37:06;144545.28;;;11.13;100.00
14689;BME280;7432;48.728;9.154;2023-04-29T00:39:34;144544.06;;;11.13;100.00
14689;BME280;7432;48.728;9.154;2023-04-29T00:42:01;144528.34;;;11.06;100.00
14689;BME280;7432;48.728;9.154;2023-04-29T00:44:28;144527.13;;;11.06;100.00
14689;BME280;7432;48.728;9.154;2023-04-29T00:46:54;144516.19;;;11.01;100.00
14689;BME280;7432;48.728;9.154;2023-04-29T00:49:21;144506.53;;;10.97;100.00
14689;BME280;7432;48.728;9.154;2023-04-29T00:51:48;144504.09;;;10.96;100.00
14689;BME280;7432;48.728;9.154;2023-04-29T00:54:15;144505.31;;;10.97;100.00
14689;BME280;7432;48.728;9.154;2023-04-29T00:56:44;144496.84;;;10.93;100.00
14689;BME280;7432;48.728;9.154;2023-04-29T00:59:11;144496.84;;;10.93;100.00
14689;BME280;7432;48.728;9.154;2023-04-29T01:01:40;144493.22;;;10.92;100.00
14689;BME280;7432;48.728;9.154;2023-04-29T01:04:06;144490.78;;;10.91;100.00
14689;BME280;7432;48.728;9.154;2023-04-29T01:06:42;144488.41;;;10.90;100.00
14689;BME280;7432;48.728;9.154;2023-04-29T01:09:21;144492.00;;;10.91;100.00
14689;BME280;7432;48.728;9.154;2023-04-29T01:12:01;144488.41;;;10.90;100.00
14689;BME280;7432;48.728;9.154;2023-04-29T01:14:32;144485.97;;;10.89;100.00
14689;BME280;7432;48.728;9.154;2023-04-29T01:17:04;144485.97;;;10.89;100.00
14689;BME280;7432;48.728;9.154;2023-04-29T01:19:38;144489.56;;;10.90;100.00
14689;BME280;7432;48.728;9.154;2023-04-29T01:22:09;144472.63;;;10.83;100.00
14689;BME280;7432;48.728;9.154;2023-04-29T01:24:38;144479.91;;;10.86;100.00
14689;BME280;7432;48.728;9.154;2023-04-29T01:27:13;144473.84;;;10.84;100.00
14689;BME280;7432;48.728;9.154;2023-04-29T01:29:48;144472.63;;;10.83;100.00
14689;BME280;7432;48.728;9.154;2023-04-29T01:32:22;144462.97;;;10.79;100.00
14689;BME280;7432;48.728;9.154;2023-04-29T01:34:58;144473.84;;;10.84;100.00
14689;BME280;7432;48.728;9.154;2023-04-29T01:37:34;144462.97;;;10.79;100.00
14689;BME280;7432;48.728;9.154;2023-04-29T01:40:11;144469.03;;;10.82;100.00
14689;BME280;7432;48.728;9.154;2023-04-29T01:42:44;144469.03;;;10.82;100.00
14689;BME280;7432;48.728;9.154;2023-04-29T01:45:15;144462.97;;;10.79;100.00
14689;BME280;7432;48.728;9.154;2023-04-29T01:47:42;144458.09;;;10.77;100.00
14689;BME280;7432;48.728;9.154;2023-04-29T01:50:09;144453.28;;;10.75;100.00
14689;BME280;7432;48.728;9.154;2023-04-29T01:52:36;144448.44;;;10.73;100.00
14689;BME280;7432;48.728;9.154;2023-04-29T01:55:05;144446.00;;;10.72;100.00
14689;BME280;7432;48.728;9.154;2023-04-29T01:57:31;144439.97;;;10.69;100.00
14689;BME280;7432;48.728;9.154;2023-04-29T01:59:58;144432.69;;;10.66;100.00
14689;BME280;7432;48.728;9.154;2023-04-29T02:02:26;144441.19;;;10.70;100.00
14689;BME280;7432;48.728;9.154;2023-04-29T02:04:52;144431.47;;;10.66;100.00
14689;BME280;7432;48.728;9.154;2023-04-29T02:07:19;144423.03;;;10.62;100.00
14689;BME280;7432;48.728;9.154;2023-04-29T02:09:45;144421.81;;;10.62;100.00
14689;BME280;7432;48.728;9.154;2023-04-29T02:12:13;144419.38;;;10.61;100.00
14689;BME280;7432;48.728;9.154;2023-04-29T02:14:39;144419.38;;;10.61;100.00
14689;BME280;7432;48.728;9.154;2023-04-29T02:17:06;144406.06;;;10.55;100.00
14689;BME280;7432;48.728;9.154;2023-04-29T02:19:32;144407.28;;;10.56;100.00
14689;BME280;7432;48.728;9.154;2023-04-29T02:21:59;144400.03;;;10.53;100.00
14689;BME280;7432;48.728;9.154;2023-04-29T02:24:25;144407.28;;;10.56;100.00
14689;BME280;7432;48.728;9.154;2023-04-29T02:26:52;144398.81;;;10.52;100.00
14689;BME280;7432;48.728;9.154;2023-04-29T02:29:19;144392.75;;;10.50;100.00
14689;BME280;7432;48.728;9.154;2023-04-29T02:31:46;144390.38;;;10.49;100.00
14689;BME280;7432;48.728;9.154;2023-04-29T02:34:12;144386.72;;;10.47;100.00
14689;BME280;7432;48.728;9.154;2023-04-29T02:36:38;144386.72;;;10.47;100.00
14689;BME280;7432;48.728;9.154;2023-04-29T02:39:05;144379.44;;;10.44;100.00
14689;BME280;7432;48.728;9.154;2023-04-29T02:41:31;144373.41;;;10.42;100.00
14689;BME280;7432;48.728;9.154;2023-04-29T02:43:58;144372.19;;;10.41;100.00
14689;BME280;7432;48.728;9.154;2023-04-29T02:46:25;144375.84;;;10.43;100.00
14689;BME280;7432;48.728;9.154;2023-04-29T02:48:52;144372.19;;;10.41;100.00
14689;BME280;7432;48.728;9.154;2023-04-29T02:51:18;144366.13;;;10.39;100.00
14689;BME280;7432;48.728;9.154;2023-04-29T02:53:45;144367.34;;;10.39;100.00
14689;BME280;7432;48.728;9.154;2023-04-29T02:56:11;144371.00;;;10.41;100.00
14689;BME280;7432;48.728;9.154;2023-04-29T02:58:37;144383.09;;;10.46;100.00
14689;BME280;7432;48.728;9.154;2023-04-29T03:01:04;144373.41;;;10.42;100.00
14689;BME280;7432;48.728;9.154;2023-04-29T03:03:31;144369.78;;;10.40;100.00
14689;BME280;7432;48.728;9.154;2023-04-29T03:05:58;144364.91;;;10.38;100.00
14689;BME280;7432;48.728;9.154;2023-04-29T03:08:24;144367.34;;;10.39;100.00
14689;BME280;7432;48.728;9.154;2023-04-29T03:10:51;144378.22;;;10.44;100.00
14689;BME280;7432;48.728;9.154;2023-04-29T03:13:17;144383.09;;;10.46;100.00
14689;BME280;7432;48.728;9.154;2023-04-29T03:15:45;144379.44;;;10.44;100.00
14689;BME280;7432;48.728;9.154;2023-04-29T03:18:11;144377.06;;;10.43;100.00
14689;BME280;7432;48.728;9.154;2023-04-29T03:20:39;144371.00;;;10.41;100.00
14689;BME280;7432;48.728;9.154;2023-04-29T03:23:05;144364.91;;;10.38;100.00
14689;BME280;7432;48.728;9.154;2023-04-29T03:25:32;144361.31;;;10.37;100.00
14689;BME280;7432;48.728;9.154;2023-04-29T03:27:58;144361.31;;;10.37;100.00
14689;BME280;7432;48.728;9.154;2023-04-29T03:30:24;144346.78;;;10.31;100.00
14689;BME280;7432;48.728;9.154;2023-04-29T03:32:51;144345.56;;;10.30;100.00
14689;BME280;7432;48.728;9.154;2023-04-29T03:35:17;144356.47;;;10.35;100.00
14689;BME280;7432;48.728;9.154;2023-04-29T03:37:45;144350.44;;;10.32;100.00
14689;BME280;7432;48.728;9.154;2023-04-29T03:40:12;144349.22;;;10.32;100.00
14689;BME280;7432;48.728;9.154;2023-04-29T03:42:38;144346.78;;;10.31;100.00
14689;BME280;7432;48.728;9.154;2023-04-29T03:45:06;144354.03;;;10.34;100.00
14689;BME280;7432;48.728;9.154;2023-04-29T03:47:32;144341.94;;;10.29;100.00
14689;BME280;7432;48.728;9.154;2023-04-29T03:49:59;144326.22;;;10.22;100.00
14689;BME280;7432;48.728;9.154;2023-04-29T03:52:25;144329.88;;;10.24;100.00
14689;BME280;7432;48.728;9.154;2023-04-29T03:54:53;144323.81;;;10.21;100.00
14689;BME280;7432;48.728;9.154;2023-04-29T03:57:20;144320.16;;;10.20;100.00
14689;BME280;7432;48.728;9.154;2023-04-29T03:59:46;144321.38;;;10.20;100.00
14689;BME280;7432;48.728;9.154;2023-04-29T04:02:14;144315.34;;;10.18;100.00
14689;BME280;7432;48.728;9.154;2023-04-29T04:04:40;144309.28;;;10.15;100.00
14689;BME280;7432;48.728;9.154;2023-04-29T04:07:07;144293.50;;;10.08;100.00
14689;BME280;7432;48.728;9.154;2023-04-29T04:09:33;144292.34;;;10.08;100.00
14689;BME280;7432;48.728;9.154;2023-04-29T04:12:01;144285.06;;;10.05;100.00
14689;BME280;7432;48.728;9.154;2023-04-29T04:14:27;144285.06;;;10.05;100.00
14689;BME280;7432;48.728;9.154;2023-04-29T04:16:54;144274.16;;;10.00;100.00
14689;BME280;7432;48.728;9.154;2023-04-29T04:19:20;144263.28;;;9.96;100.00
14689;BME280;7432;48.728;9.154;2023-04-29T04:21:47;144253.59;;;9.92;100.00
14689;BME280;7432;48.728;9.154;2023-04-29T04:24:13;144263.28;;;9.96;100.00
14689;BME280;7432;48.728;9.154;2023-04-29T04:26:40;144265.72;;;9.97;100.00
14689;BME280;7432;48.728;9.154;2023-04-29T04:29:08;144269.31;;;9.98;100.00
14689;BME280;7432;48.728;9.154;2023-04-29T04:31:34;144265.72;;;9.97;100.00
14689;BME280;7432;48.728;9.154;2023-04-29T04:34:01;144277.81;;;10.02;100.00
14689;BME280;7432;48.728;9.154;2023-04-29T04:36:27;144275.38;;;10.01;100.00
14689;BME280;7432;48.728;9.154;2023-04-29T04:38:53;144283.84;;;10.04;100.00
14689;BME280;7432;48.728;9.154;2023-04-29T04:41:20;144294.72;;;10.09;100.00
14689;BME280;7432;48.728;9.154;2023-04-29T04:43:46;144303.25;;;10.13;100.00
14689;BME280;7432;48.728;9.154;2023-04-29T04:46:15;144309.28;;;10.15;100.00
14689;BME280;7432;48.728;9.154;2023-04-29T04:48:41;144297.16;;;10.10;100.00
14689;BME280;7432;48.728;9.154;2023-04-29T04:51:08;144308.06;;;10.15;100.00
14689;BME280;7432;48.728;9.154;2023-04-29T04:53:35;144323.81;;;10.21;100.00
14689;BME280;7432;48.728;9.154;2023-04-29T04:56:01;144332.25;;;10.25;100.00
14689;BME280;7432;48.728;9.154;2023-04-29T04:58:27;144337.13;;;10.27;100.00
14689;BME280;7432;48.728;9.154;2023-04-29T05:00:55;144360.09;;;10.36;100.00
14689;BME280;7432;48.728;9.154;2023-04-29T05:03:23;144373.41;;;10.42;100.00
14689;BME280;7432;48.728;9.154;2023-04-29T05:05:52;144393.97;;;10.50;100.00
14689;BME280;7432;48.728;9.154;2023-04-29T05:08:18;144413.34;;;10.58;100.00
14689;BME280;7432;48.728;9.154;2023-04-29T05:10:45;144429.09;;;10.65;100.00
14689;BME280;7432;48.728;9.154;2023-04-29T05:13:11;144449.66;;;10.74;100.00
14689;BME280;7432;48.728;9.154;2023-04-29T05:15:37;144475.06;;;10.84;100.00
14689;BME280;7432;48.728;9.154;2023-04-29T05:18:04;144504.09;;;10.96;100.00
14689;BME280;7432;48.728;9.154;2023-04-29T05:20:32;144548.88;;;11.15;100.00
14689;BME280;7432;48.728;9.154;2023-04-29T05:22:58;144582.78;;;11.29;100.00
14689;BME280;7432;48.728;9.154;2023-04-29T05:25:24;144620.38;;;11.45;100.00
14689;BME280;7432;48.728;9.154;2023-04-29T05:27:51;144651.84;;;11.58;100.00
14689;BME280;7432;48.728;9.154;2023-04-29T05:30:17;144679.72;;;11.69;100.00
14689;BME280;7432;48.728;9.154;2023-04-29T05:32:44;144693.03;;;11.75;100.00
14689;BME280;7432;48.728;9.154;2023-04-29T05:35:10;144706.34;;;11.80;100.00
14689;BME280;7432;48.728;9.154;2023-04-29T05:37:38;144747.56;;;11.98;100.00
14689;BME280;7432;48.728;9.154;2023-04-29T05:40:06;144786.31;;;12.14;100.00
14689;BME280;7432;48.728;9.154;2023-04-29T05:42:32;144825.09;;;12.30;100.00
14689;BME280;7432;48.728;9.154;2023-04-29T05:44:59;144911.16;;;12.66;100.00
14689;BME280;7432;48.728;9.154;2023-04-29T05:47:25;144953.59;;;12.83;100.00
14689;BME280;7432;48.728;9.154;2023-04-29T05:49:51;145019.09;;;13.11;100.00
14689;BME280;7432;48.728;9.154;2023-04-29T05:52:18;145105.22;;;13.46;100.00
14689;BME280;7432;48.728;9.154;2023-04-29T05:54:46;145142.81;;;13.62;100.00
14689;BME280;7432;48.728;9.154;2023-04-29T05:57:12;145185.28;;;13.80;100.00
14689;BME280;7432;48.728;9.154;2023-04-29T05:59:39;145278.69;;;14.18;100.00
14689;BME280;7432;48.728;9.154;2023-04-29T06:02:05;145335.78;;;14.42;96.04
14689;BME280;7432;48.728;9.154;2023-04-29T06:04:31;145368.56;;;14.56;91.46
14689;BME280;7432;48.728;9.154;2023-04-29T06:06:58;145402.53;;;14.70;90.35
14689;BME280;7432;48.728;9.154;2023-04-29T06:09:24;145374.63;;;14.58;89.97
14689;BME280;7432;48.728;9.154;2023-04-29T06:11:52;145411.03;;;14.73;90.15
14689;BME280;7432;48.728;9.154;2023-04-29T06:14:18;145663.72;;;15.78;88.12
14689;BME280;7432;48.728;9.154;2023-04-29T06:16:45;146017.53;;;17.25;80.35
14689;BME280;7432;48.728;9.154;2023-04-29T06:19:11;146093.03;;;17.56;76.56
14689;BME280;7432;48.728;9.154;2023-04-29T06:21:38;146071.06;;;17.47;76.56
14689;BME280;7432;48.728;9.154;2023-04-29T06:24:04;145939.69;;;16.93;76.01
14689;BME280;7432;48.728;9.154;2023-04-29T06:26:31;145770.69;;;16.23;78.64
14689;BME280;7432;48.728;9.154;2023-04-29T06:28:59;145612.72;;;15.57;81.66
14689;BME280;7432;48.728;9.154;2023-04-29T06:31:26;145509.38;;;15.14;83.94
14689;BME280;7432;48.728;9.154;2023-04-29T06:33:52;145445.03;;;14.88;85.34
14689;BME280;7432;48.728;9.154;2023-04-29T06:36:19;145389.22;;;14.64;86.18
14689;BME280;7432;48.728;9.154;2023-04-29T06:38:45;145361.28;;;14.53;86.19
14689;BME280;7432;48.728;9.154;2023-04-29T06:41:11;145389.22;;;14.64;87.41
14689;BME280;7432;48.728;9.154;2023-04-29T06:43:38;145386.78;;;14.63;87.14
14689;BME280;7432;48.728;9.154;2023-04-29T06:46:06;145356.38;;;14.51;85.55
14689;BME280;7432;48.728;9.154;2023-04-29T06:48:32;145389.22;;;14.64;86.29
14689;BME280;7432;48.728;9.154;2023-04-29T06:50:59;145390.38;;;14.65;86.49
14689;BME280;7432;48.728;9.154;2023-04-29T06:53:25;145445.03;;;14.88;85.20
14689;BME280;7432;48.728;9.154;2023-04-29T06:55:52;145394.06;;;14.66;83.98
14689;BME280;7432;48.728;9.154;2023-04-29T06:58:18;145346.72;;;14.47;84.34
14689;BME280;7432;48.728;9.154;2023-04-29T07:00:46;145361.28;;;14.53;84.74
14689;BME280;7432;48.728;9.154;2023-04-29T07:03:14;145377.03;;;14.59;84.50
14689;BME280;7432;48.728;9.154;2023-04-29T07:05:41;145377.03;;;14.59;86.24
14689;BME280;7432;48.728;9.154;2023-04-29T07:08:10;145363.69;;;14.54;86.52
14689;BME280;7432;48.728;9.154;2023-04-29T07:10:36;145344.25;;;14.46;86.10
14689;BME280;7432;48.728;9.154;2023-04-29T07:13:03;145316.38;;;14.34;87.22
14689;BME280;7432;48.728;9.154;2023-04-29T07:15:32;145327.28;;;14.39;87.23
14689;BME280;7432;48.728;9.154;2023-04-29T07:17:59;145317.56;;;14.35;85.09
14689;BME280;7432;48.728;9.154;2023-04-29T07:20:27;145351.56;;;14.49;84.52
14689;BME280;7432;48.728;9.154;2023-04-29T07:22:53;145388.00;;;14.64;84.70
14689;BME280;7432;48.728;9.154;2023-04-29T07:25:20;145373.41;;;14.58;84.65
14689;BME280;7432;48.728;9.154;2023-04-29T07:27:46;145794.97;;;16.33;79.96
14689;BME280;7432;48.728;9.154;2023-04-29T07:30:12;146778.84;;;20.40;62.75
14689;BME280;7432;48.728;9.154;2023-04-29T07:32:39;147700.72;;;24.21;51.97
14689;BME280;7432;48.728;9.154;2023-04-29T07:35:06;147885.44;;;24.97;47.65
14689;BME280;7432;48.728;9.154;2023-04-29T07:37:34;147589.47;;;23.75;50.29
14689;BME280;7432;48.728;9.154;2023-04-29T07:40:00;147183.91;;;22.08;54.32
14689;BME280;7432;48.728;9.154;2023-04-29T07:42:26;146771.53;;;20.37;57.76
14689;BME280;7432;48.728;9.154;2023-04-29T07:44:53;146481.41;;;19.17;61.42
14689;BME280;7432;48.728;9.154;2023-04-29T07:47:20;146212.28;;;18.06;62.82
14689;BME280;7432;48.728;9.154;2023-04-29T07:49:46;146078.38;;;17.50;65.17
14689;BME280;7432;48.728;9.154;2023-04-29T07:52:12;146173.28;;;17.90;67.61
14689;BME280;7432;48.728;9.154;2023-04-29T07:54:40;146243.91;;;18.19;65.94
14689;BME280;7432;48.728;9.154;2023-04-29T07:57:06;146195.22;;;17.99;65.26
14689;BME280;7432;48.728;9.154;2023-04-29T07:59:33;146088.13;;;17.54;65.89
14689;BME280;7432;48.728;9.154;2023-04-29T08:02:00;145983.47;;;17.11;68.33
14689;BME280;7432;48.728;9.154;2023-04-29T08:04:26;145942.16;;;16.94;68.37
14689;BME280;7432;48.728;9.154;2023-04-29T08:06:52;145957.94;;;17.00;69.51
14689;BME280;7432;48.728;9.154;2023-04-29T08:09:19;145999.28;;;17.17;69.59
14689;BME280;7432;48.728;9.154;2023-04-29T08:11:47;146023.59;;;17.28;68.05
14689;BME280;7432;48.728;9.154;2023-04-29T08:14:13;146016.31;;;17.25;68.17
14689;BME280;7432;48.728;9.154;2023-04-29T08:16:39;146063.75;;;17.44;68.08
14689;BME280;7432;48.728;9.154;2023-04-29T08:19:06;146085.72;;;17.53;68.51
14689;BME280;7432;48.728;9.154;2023-04-29T08:21:32;146028.47;;;17.30;69.08
14689;BME280;7432;48.728;9.154;2023-04-29T08:23:58;146084.44;;;17.53;68.39
14689;BME280;7432;48.728;9.154;2023-04-29T08:26:25;146119.78;;;17.67;67.81
14689;BME280;7432;48.728;9.154;2023-04-29T08:28:53;146106.41;;;17.62;67.08
14689;BME280;7432;48.728;9.154;2023-04-29T08:31:20;146069.84;;;17.47;67.20
14689;BME280;7432;48.728;9.154;2023-04-29T08:33:47;146093.03;;;17.56;66.87
14689;BME280;7432;48.728;9.154;2023-04-29T08:36:13;146113.72;;;17.65;66.80
14689;BME280;7432;48.728;9.154;2023-04-29T08:38:40;146142.88;;;17.77;67.26
14689;BME280;7432;48.728;9.154;2023-04-29T08:41:06;146147.75;;;17.79;66.07
14689;BME280;7432;48.728;9.154;2023-04-29T08:43:34;146134.34;;;17.73;64.18
14689;BME280;7432;48.728;9.154;2023-04-29T08:46:02;146097.88;;;17.58;66.12
14689;BME280;7432;48.728;9.154;2023-04-29T08:48:29;146103.94;;;17.61;66.30
14689;BME280;7432;48.728;9.154;2023-04-29T08:50:55;146082.00;;;17.52;66.69
14689;BME280;7432;48.728;9.154;2023-04-29T08:53:22;146060.13;;;17.43;65.99
14689;BME280;7432;48.728;9.154;2023-04-29T08:55:49;145960.38;;;17.01;66.64
14689;BME280;7432;48.728;9.154;2023-04-29T08:58:15;145929.94;;;16.89;68.21
14689;BME280;7432;48.728;9.154;2023-04-29T09:00:42;145886.19;;;16.71;68.60
14689;BME280;7432;48.728;9.154;2023-04-29T09:03:15;145902.00;;;16.77;69.03
14689;BME280;7432;48.728;9.154;2023-04-29T09:05:44;145931.19;;;16.89;69.57
14689;BME280;7432;48.728;9.154;2023-04-29T09:08:13;145936.03;;;16.91;66.89
14689;BME280;7432;48.728;9.154;2023-04-29T09:10:41;145944.56;;;16.95;67.58
14689;BME280;7432;48.728;9.154;2023-04-29T09:13:07;145942.16;;;16.94;68.48
14689;BME280;7432;48.728;9.154;2023-04-29T09:15:35;145920.25;;;16.85;67.96
14689;BME280;7432;48.728;9.154;2023-04-29T09:18:02;145809.56;;;16.39;69.97
14689;BME280;7432;48.728;9.154;2023-04-29T09:20:30;145743.94;;;16.12;71.78
14689;BME280;7432;48.728;9.154;2023-04-29T09:22:58;145732.97;;;16.07;72.85
14689;BME280;7432;48.728;9.154;2023-04-29T09:25:25;145780.38;;;16.27;72.74
14689;BME280;7432;48.728;9.154;2023-04-29T09:27:52;145861.88;;;16.61;72.12
14689;BME280;7432;48.728;9.154;2023-04-29T09:30:19;146018.75;;;17.26;68.56
14689;BME280;7432;48.728;9.154;2023-04-29T09:33:03;146211.06;;;18.05;66.41
14689;BME280;7432;48.728;9.154;2023-04-29T09:35:31;146304.78;;;18.44;64.00
14689;BME280;7432;48.728;9.154;2023-04-29T09:38:08;146592.31;;;19.63;61.46
14689;BME280;7432;48.728;9.154;2023-04-29T09:40:34;146647.16;;;19.86;59.13
14689;BME280;7432;48.728;9.154;2023-04-29T09:43:01;146739.84;;;20.24;59.07
14689;BME280;7432;48.728;9.154;2023-04-29T09:45:34;146652.03;;;19.88;58.42
14689;BME280;7432;48.728;9.154;2023-04-29T09:48:02;146506.97;;;19.28;60.03
14689;BME280;7432;48.728;9.154;2023-04-29T09:50:30;146454.59;;;19.06;61.70
14689;BME280;7432;48.728;9.154;2023-04-29T09:52:56;146570.34;;;19.54;59.81
14689;BME280;7432;48.728;9.154;2023-04-29T09:55:23;146619.13;;;19.74;60.46
14689;BME280;7432;48.728;9.154;2023-04-29T09:57:50;146841.00;;;20.66;57.77
14689;BME280;7432;48.728;9.154;2023-04-29T10:00:17;146873.91;;;20.80;54.91
14689;BME280;7432;48.728;9.154;2023-04-29T10:02:45;146831.25;;;20.62;56.20
14689;BME280;7432;48.728;9.154;2023-04-29T10:05:13;146823.94;;;20.59;56.14
14689;BME280;7432;48.728;9.154;2023-04-29T10:07:42;146808.06;;;20.52;55.29
14689;BME280;7432;48.728;9.154;2023-04-29T10:10:09;146634.97;;;19.81;56.41
14689;BME280;7432;48.728;9.154;2023-04-29T10:12:36;146676.38;;;19.98;57.50
14689;BME280;7432;48.728;9.154;2023-04-29T10:15:09;146676.38;;;19.98;55.78
14689;BME280;7432;48.728;9.154;2023-04-29T10:17:42;146855.63;;;20.72;54.10
14689;BME280;7432;48.728;9.154;2023-04-29T10:20:13;147523.50;;;23.48;49.00
14689;BME280;7432;48.728;9.154;2023-04-29T10:22:45;148273.38;;;26.57;41.55
14689;BME280;7432;48.728;9.154;2023-04-29T10:25:12;148596.81;;;27.90;39.31
14689;BME280;7432;48.728;9.154;2023-04-29T10:27:41;148415.50;;;27.16;37.61
14689;BME280;7432;48.728;9.154;2023-04-29T10:30:11;148536.78;;;27.65;37.92
14689;BME280;7432;48.728;9.154;2023-04-29T10:32:39;148669.16;;;28.20;36.84
14689;BME280;7432;48.728;9.154;2023-04-29T10:35:08;148872.72;;;29.04;35.58
14689;BME280;7432;48.728;9.154;2023-04-29T10:37:35;149396.81;;;31.19;32.67
14689;BME280;7432;48.728;9.154;2023-04-29T10:40:10;149514.72;;;31.67;31.47
14689;BME280;7432;48.728;9.154;2023-04-29T10:42:42;149653.56;;;32.24;31.01
14689;BME280;7432;48.728;9.154;2023-04-29T10:45:17;149384.53;;;31.14;31.03
14689;BME280;7432;48.728;9.154;2023-04-29T10:48:08;148900.88;;;29.15;32.70
14689;BME280;7432;48.728;9.154;2023-04-29T10:50:41;148022.47;;;25.54;38.83
14689;BME280;7432;48.728;9.154;2023-04-29T10:53:24;147777.78;;;24.53;41.46
14689;BME280;7432;48.728;9.154;2023-04-29T10:55:56;147324.34;;;22.66;44.55
14689;BME280;7432;48.728;9.154;2023-04-29T10:58:36;147135.09;;;21.88;45.92
14689;BME280;7432;48.728;9.154;2023-04-29T11:01:04;146944.72;;;21.09;47.67
14689;BME280;7432;48.728;9.154;2023-04-29T11:03:54;147143.66;;;21.91;47.00
14689;BME280;7432;48.728;9.154;2023-04-29T11:06:24;147193.69;;;22.12;46.83
14689;BME280;7432;48.728;9.154;2023-04-29T11:09:07;147142.44;;;21.91;46.85
14689;BME280;7432;48.728;9.154;2023-04-29T11:11:43;147052.06;;;21.53;48.39
14689;BME280;7432;48.728;9.154;2023-04-29T11:14:11;147230.28;;;22.27;45.98
14689;BME280;7432;48.728;9.154;2023-04-29T11:16:46;147440.41;;;23.14;44.91
14689;BME280;7432;48.728;9.154;2023-04-29T11:19:14;147657.94;;;24.03;42.34
14689;BME280;7432;48.728;9.154;2023-04-29T11:21:41;148100.75;;;25.86;39.33
14689;BME280;7432;48.728;9.154;2023-04-29T11:24:09;147985.69;;;25.39;38.33
14689;BME280;7432;48.728;9.154;2023-04-29T11:26:37;147726.44;;;24.32;40.53
14689;BME280;7432;48.728;9.154;2023-04-29T11:29:06;147518.63;;;23.46;42.12
14689;BME280;7432;48.728;9.154;2023-04-29T11:31:35;147525.94;;;23.49;42.14
14689;BME280;7432;48.728;9.154;2023-04-29T11:34:03;147706.84;;;24.24;40.87
14689;BME280;7432;48.728;9.154;2023-04-29T11:36:30;147999.16;;;25.44;38.87
14689;BME280;7432;48.728;9.154;2023-04-29T11:38:59;148027.34;;;25.56;37.19
14689;BME280;7432;48.728;9.154;2023-04-29T11:41:25;147972.22;;;25.33;37.73
14689;BME280;7432;48.728;9.154;2023-04-29T11:43:54;147788.75;;;24.57;38.17
14689;BME280;7432;48.728;9.154;2023-04-29T11:46:22;147689.75;;;24.16;39.36
14689;BME280;7432;48.728;9.154;2023-04-29T11:48:48;147695.84;;;24.19;38.93
14689;BME280;7432;48.728;9.154;2023-04-29T11:51:16;147389.06;;;22.92;41.37
14689;BME280;7432;48.728;9.154;2023-04-29T11:53:43;147332.91;;;22.69;41.95
14689;BME280;7432;48.728;9.154;2023-04-29T11:56:10;147043.56;;;21.50;44.14
14689;BME280;7432;48.728;9.154;2023-04-29T11:58:37;147003.28;;;21.33;46.02
14689;BME280;7432;48.728;9.154;2023-04-29T12:01:03;146705.66;;;20.10;46.87
14689;BME280;7432;48.728;9.154;2023-04-29T12:03:32;146654.47;;;19.89;48.20
14689;BME280;7432;48.728;9.154;2023-04-29T12:06:01;146647.16;;;19.86;48.24
14689;BME280;7432;48.728;9.154;2023-04-29T12:08:28;146659.34;;;19.91;49.40
14689;BME280;7432;48.728;9.154;2023-04-29T12:10:57;146591.06;;;19.63;48.82
14689;BME280;7432;48.728;9.154;2023-04-29T12:13:26;146584.97;;;19.60;51.64
14689;BME280;7432;48.728;9.154;2023-04-29T12:15:52;146541.13;;;19.42;53.92
14689;BME280;7432;48.728;9.154;2023-04-29T12:18:19;146422.94;;;18.93;55.86
14689;BME280;7432;48.728;9.154;2023-04-29T12:20:49;146226.84;;;18.12;57.91
14689;BME280;7432;48.728;9.154;2023-04-29T12:23:18;146335.25;;;18.57;57.88
14689;BME280;7432;48.728;9.154;2023-04-29T12:25:48;146452.16;;;19.05;56.23
14689;BME280;7432;48.728;9.154;2023-04-29T12:28:15;146480.19;;;19.17;55.15
14689;BME280;7432;48.728;9.154;2023-04-29T12:30:42;146472.84;;;19.14;55.12
14689;BME280;7432;48.728;9.154;2023-04-29T12:33:09;146369.34;;;18.71;57.09
14689;BME280;7432;48.728;9.154;2023-04-29T12:35:35;146391.25;;;18.80;57.06
14689;BME280;7432;48.728;9.154;2023-04-29T12:38:04;146347.44;;;18.62;57.99
14689;BME280;7432;48.728;9.154;2023-04-29T12:40:30;146269.47;;;18.29;58.97
14689;BME280;7432;48.728;9.154;2023-04-29T12:43:05;146099.09;;;17.59;60.82
14689;BME280;7432;48.728;9.154;2023-04-29T12:45:32;146032.13;;;17.31;62.75
14689;BME280;7432;48.728;9.154;2023-04-29T12:48:00;146002.91;;;17.19;62.23
14689;BME280;7432;48.728;9.154;2023-04-29T12:50:30;145972.53;;;17.06;63.20
14689;BME280;7432;48.728;9.154;2023-04-29T12:52:58;146001.69;;;17.18;62.01
14689;BME280;7432;48.728;9.154;2023-04-29T12:55:26;146148.97;;;17.80;61.25
14689;BME280;7432;48.728;9.154;2023-04-29T12:57:52;146207.38;;;18.04;60.27